Time;durP1;ratioP1;P1;durP2;ratioP2;P2;SDS_P1;SDS_P2;PMS_P1;PMS_P2;Temp;Humidity;BMP_temperature;BMP_pressure;BME280_temperature;BME280_humidity;BME280_pressure;Samples;Min_cycle;Max_cycle;Signal;HPM_P1;HPM_P2
2023/12/26 00:00:27;177448.00;0.59;307.09;0.00;0.00;0.62;;;;;9.60;1.00;;;;;;2267623;61;1080;-88
2023/12/26 00:02:54;81251.00;0.27;141.20;0.00;0.00;0.62;;;;;9.60;1.00;;;;;;2267839;61;1926;-88
2023/12/26 00:05:22;147177.00;0.49;254.94;0.00;0.00;0.62;;;;;9.40;1.00;;;;;;2268030;61;979;-88
2023/12/26 00:10:26;42297.00;0.14;73.86;0.00;0.00;0.62;;;;;9.10;1.00;;;;;;2270162;61;1309;-90
2023/12/26 00:12:53;79898.00;0.27;138.86;0.00;0.00;0.62;;;;;9.00;1.00;;;;;;2267739;61;1215;-88
2023/12/26 00:15:20;21561.00;0.07;37.97;0.00;0.00;0.62;;;;;9.20;1.00;;;;;;2267986;61;946;-88
2023/12/26 00:17:47;141183.00;0.47;244.61;0.00;0.00;0.62;;;;;9.30;1.00;;;;;;2277310;55;3743;-86
2023/12/26 00:22:43;192697.00;0.64;333.35;0.00;0.00;0.62;;;;;9.60;1.00;;;;;;2265579;61;1956;-87
2023/12/26 00:25:10;102902.00;0.34;178.58;28096.00;0.09;49.29;;;;;9.90;1.00;;;;;;2263633;61;1597;-87
2023/12/26 00:27:40;185468.00;0.62;320.91;16089.00;0.05;28.50;;;;;10.00;1.00;;;;;;2263676;61;1674;-88
2023/12/26 00:30:08;171612.00;0.57;297.04;0.00;0.00;0.62;;;;;9.90;1.00;;;;;;2263811;61;1313;-88
2023/12/26 00:32:36;106891.00;0.36;185.47;0.00;0.00;0.62;;;;;10.10;1.00;;;;;;2263823;61;2360;-87
2023/12/26 00:35:04;70038.00;0.23;121.83;0.00;0.00;0.62;;;;;10.00;1.00;;;;;;2263896;61;1147;-87
2023/12/26 00:37:32;17554.00;0.06;31.03;0.00;0.00;0.62;;;;;10.00;1.00;;;;;;2263834;61;1598;-88
2023/12/26 00:39:59;81016.00;0.27;140.79;0.00;0.00;0.62;;;;;9.70;1.00;;;;;;2264270;61;1734;-88
2023/12/26 00:42:27;138818.00;0.46;240.53;8817.00;0.03;15.90;;;;;9.60;1.00;;;;;;2264545;61;1145;-88
2023/12/26 00:44:55;106689.00;0.36;185.12;0.00;0.00;0.62;;;;;9.50;1.00;;;;;;2264464;61;1932;-89
2023/12/26 00:47:24;189597.00;0.63;328.01;0.00;0.00;0.62;;;;;9.70;1.00;;;;;;2273821;56;3733;-88
2023/12/26 00:49:55;232312.00;0.77;401.53;0.00;0.00;0.62;;;;;9.50;1.00;;;;;;2268478;61;1572;-88
2023/12/26 00:52:22;70235.00;0.23;122.17;0.00;0.00;0.62;;;;;9.50;1.00;;;;;;2268588;61;1192;-90
2023/12/26 00:54:49;243447.00;0.81;420.68;0.00;0.00;0.62;;;;;9.50;1.00;;;;;;2268586;61;949;-87
2023/12/26 00:57:16;188429.00;0.63;326.00;0.00;0.00;0.62;;;;;9.50;1.00;;;;;;2268619;61;995;-88
2023/12/26 00:59:43;86274.00;0.29;149.87;4298.00;0.01;8.07;;;;;9.40;1.00;;;;;;2268481;61;1712;-87
2023/12/26 01:02:12;23090.00;0.08;40.62;0.00;0.00;0.62;;;;;9.10;1.00;;;;;;2268599;61;1090;-88
2023/12/26 01:04:39;89098.00;0.30;154.75;0.00;0.00;0.62;;;;;9.00;1.00;;;;;;2268465;61;2005;-86
2023/12/26 01:07:06;192830.00;0.64;333.58;0.00;0.00;0.62;;;;;8.80;1.00;;;;;;2268590;61;1048;-90
2023/12/26 01:09:34;66310.00;0.22;115.38;0.00;0.00;0.62;;;;;8.80;1.00;;;;;;2268534;61;1573;-88
2023/12/26 01:12:01;384833.00;1.28;663.73;71788.00;0.24;124.85;;;;;9.00;1.00;;;;;;2268498;61;1081;-86
2023/12/26 01:14:29;126753.00;0.42;219.73;0.00;0.00;0.62;;;;;9.10;1.00;;;;;;2268437;61;1081;-89
2023/12/26 01:16:56;177393.00;0.59;307.00;0.00;0.00;0.62;;;;;8.80;1.00;;;;;;2268574;61;1518;-90
2023/12/26 01:19:24;122543.00;0.41;212.47;0.00;0.00;0.62;;;;;8.80;1.00;;;;;;2268448;61;1287;-89
2023/12/26 01:21:51;18532.00;0.06;32.73;0.00;0.00;0.62;;;;;8.90;1.00;;;;;;2268569;61;920;-89
2023/12/26 01:24:18;235602.00;0.79;407.19;36295.00;0.12;63.48;;;;;8.80;1.00;;;;;;2268320;61;2004;-88
2023/12/26 01:26:45;131627.00;0.44;228.13;0.00;0.00;0.62;;;;;8.70;1.00;;;;;;2268399;61;1052;-90
2023/12/26 01:29:12;97914.00;0.33;169.97;0.00;0.00;0.62;;;;;8.90;1.00;;;;;;2268422;61;1306;-90
2023/12/26 01:31:39;44417.00;0.15;77.53;0.00;0.00;0.62;;;;;9.00;1.00;;;;;;2268451;61;1484;-90
2023/12/26 01:34:07;124015.00;0.41;215.01;0.00;0.00;0.62;;;;;9.00;1.00;;;;;;2268483;61;922;-88
2023/12/26 01:36:37;17373.00;0.06;30.72;0.00;0.00;0.62;;;;;9.10;1.00;;;;;;2268387;61;1028;-88
2023/12/26 01:39:03;356.00;0.00;1.24;0.00;0.00;0.62;;;;;8.90;1.00;;;;;;2268370;61;1707;-89
2023/12/26 01:41:31;45752.00;0.15;79.84;0.00;0.00;0.62;;;;;9.20;1.00;;;;;;2268412;61;1674;-88
2023/12/26 01:43:58;91596.00;0.31;159.06;0.00;0.00;0.62;;;;;9.40;1.00;;;;;;2268461;61;1915;-87
2023/12/26 01:48:55;138452.00;0.46;239.90;0.00;0.00;0.62;;;;;9.50;1.00;;;;;;2269924;61;1395;-88
2023/12/26 01:51:25;192060.00;0.64;332.26;0.00;0.00;0.62;;;;;9.30;1.00;;;;;;2268421;61;918;-90
2023/12/26 01:53:54;788609.00;2.63;1361.26;7866.00;0.03;14.25;;;;;9.20;1.00;;;;;;2268378;61;1562;-88
2023/12/26 01:56:22;635646.00;2.12;1095.81;28563.00;0.10;50.10;;;;;9.20;1.00;;;;;;2268362;61;1519;-88
2023/12/26 01:58:51;286646.00;0.96;494.96;0.00;0.00;0.62;;;;;9.20;1.00;;;;;;2268213;61;1279;-90
2023/12/26 02:01:18;475936.00;1.59;820.40;52796.00;0.18;92.02;;;;;8.90;1.00;;;;;;2268433;61;943;-88
2023/12/26 02:03:45;768286.00;2.56;1325.87;55656.00;0.19;96.97;;;;;9.10;1.00;;;;;;2268365;61;2005;-89
2023/12/26 02:06:13;976617.00;3.26;1691.10;96590.00;0.32;167.69;;;;;9.30;1.00;;;;;;2268336;61;923;-87
2023/12/26 02:08:41;1066909.00;3.56;1851.35;73716.00;0.25;128.18;;;;;9.40;1.00;;;;;;2268317;61;1362;-87
2023/12/26 02:11:10;982078.00;3.27;1700.76;64136.00;0.21;111.63;;;;;9.40;1.00;;;;;;2268330;61;1081;-89
2023/12/26 02:13:37;753546.00;2.51;1300.22;57866.00;0.19;100.79;;;;;9.40;1.00;;;;;;2268306;61;999;-86
2023/12/26 02:16:13;1130593.00;3.77;1965.22;122353.00;0.41;212.14;;;;;9.40;1.00;;;;;;2268458;61;906;-89
2023/12/26 02:18:41;723129.00;2.41;1247.37;3403.00;0.01;6.52;;;;;9.50;1.00;;;;;;2268266;61;1370;-88
2023/12/26 02:21:08;927038.00;3.09;1603.66;88247.00;0.29;153.28;;;;;9.20;1.00;;;;;;2268212;61;1763;-90
2023/12/26 02:23:37;1029125.00;3.43;1784.12;150584.00;0.50;260.81;;;;;9.40;1.00;;;;;;2267831;61;2010;-87
2023/12/26 02:26:06;1281979.00;4.27;2239.16;100563.00;0.34;174.54;;;;;9.70;1.00;;;;;;2268120;61;1090;-89
2023/12/26 02:28:34;1173262.00;3.91;2041.95;198943.00;0.66;344.10;;;;;9.80;1.00;;;;;;2268209;61;1775;-88
2023/12/26 02:31:03;1264923.00;4.22;2208.05;92271.00;0.31;160.23;;;;;9.80;1.00;;;;;;2271027;40;3590;-87
2023/12/26 02:33:31;1263801.00;4.21;2206.01;123697.00;0.41;214.46;;;;;10.10;1.00;;;;;;2268304;61;895;-88
2023/12/26 02:35:59;1093243.00;3.64;1898.34;117867.00;0.39;204.40;;;;;9.90;1.00;;;;;;2268155;61;1021;-88
2023/12/26 02:38:26;1142155.00;3.81;1985.98;158425.00;0.53;274.33;;;;;9.80;1.00;;;;;;2268178;61;1356;-87
2023/12/26 02:40:53;1002691.00;3.34;1737.24;25455.00;0.08;44.72;;;;;9.60;1.00;;;;;;2268249;61;1421;-88
2023/12/26 02:43:22;1108783.00;3.70;1926.14;62523.00;0.21;108.84;;;;;9.70;1.00;;;;;;2268114;61;1915;-89
2023/12/26 02:45:49;930362.00;3.10;1609.51;34933.00;0.12;61.12;;;;;10.00;1.00;;;;;;2268260;61;2375;-87
2023/12/26 02:48:16;1260034.00;4.20;2199.15;88829.00;0.30;154.29;;;;;10.00;1.00;;;;;;2268216;61;1369;-88
2023/12/26 02:50:44;1129456.00;3.76;1963.18;56402.00;0.19;98.26;;;;;10.20;1.00;;;;;;2268268;61;1058;-88
2023/12/26 02:53:11;1406930.00;4.69;2469.18;72117.00;0.24;125.42;;;;;10.20;1.00;;;;;;2268281;61;987;-89
2023/12/26 02:55:39;1134432.00;3.78;1972.11;85907.00;0.29;149.24;;;;;10.00;1.00;;;;;;2268141;61;1157;-88
2023/12/26 02:58:06;1324519.00;4.42;2317.05;102461.00;0.34;177.82;;;;;10.10;1.00;;;;;;2268195;61;1402;-89
2023/12/26 03:00:34;1058160.00;3.53;1835.76;31016.00;0.10;54.34;;;;;10.20;1.00;;;;;;2268104;61;1043;-88
2023/12/26 03:03:01;1375973.00;4.59;2411.84;99166.00;0.33;172.13;;;;;10.10;1.00;;;;;;2268124;61;1122;-89
2023/12/26 03:05:28;1394568.00;4.65;2446.25;132954.00;0.44;230.42;;;;;10.10;1.00;;;;;;2268203;61;1922;-88
2023/12/26 03:07:55;1178473.00;3.93;2051.35;109165.00;0.36;189.39;;;;;10.30;1.00;;;;;;2268142;61;1309;-88
2023/12/26 03:10:22;1431696.00;4.77;2515.24;196031.00;0.65;339.09;;;;;10.30;1.00;;;;;;2268148;61;1599;-88
2023/12/26 03:12:49;1553766.00;5.18;2744.70;164425.00;0.55;284.66;;;;;10.40;1.00;;;;;;2268189;61;1146;-88
2023/12/26 03:15:16;1147005.00;3.82;1994.69;203212.00;0.68;351.45;;;;;10.40;1.00;;;;;;2268076;61;2056;-88
2023/12/26 03:17:45;714453.00;2.38;1232.31;136237.00;0.45;236.08;;;;;10.20;1.00;;;;;;2268236;61;1017;-88
2023/12/26 03:20:12;391534.00;1.31;675.25;91092.00;0.30;158.19;;;;;9.90;1.00;;;;;;2268027;61;1592;-86
2023/12/26 03:22:40;307697.00;1.03;531.15;89841.00;0.30;156.03;;;;;9.90;1.00;;;;;;2268159;61;1561;-87
2023/12/26 03:25:07;383118.00;1.28;660.78;88172.00;0.29;153.15;;;;;9.90;1.00;;;;;;2267994;61;2006;-86
2023/12/26 03:27:35;351106.00;1.17;605.76;90980.00;0.30;158.00;;;;;9.80;1.00;;;;;;2268117;61;1123;-89
2023/12/26 03:30:01;444589.00;1.48;766.48;101612.00;0.34;176.35;;;;;9.70;1.00;;;;;;2268032;61;1604;-88
2023/12/26 03:32:28;117236808.00;390.79;65270800.00;93327.00;0.31;162.05;;;;;9.80;1.00;;;;;;2267928;61;2000;-87
2023/12/26 03:34:57;333772.00;1.11;575.97;73926.00;0.25;128.54;;;;;9.80;1.00;;;;;;2268080;61;919;-89
2023/12/26 03:37:24;340386.00;1.13;587.34;97421.00;0.32;169.12;;;;;9.90;1.00;;;;;;2268097;61;1100;-88
2023/12/26 03:39:51;376278.00;1.25;649.03;80063.00;0.27;139.15;;;;;9.70;1.00;;;;;;2267992;61;1387;-87
2023/12/26 03:42:18;315164.00;1.05;543.99;108344.00;0.36;187.97;;;;;9.60;1.00;;;;;;2268084;61;1205;-89
2023/12/26 03:44:46;275242.00;0.92;475.36;88814.00;0.30;154.26;;;;;9.80;1.00;;;;;;2267906;61;1912;-88
2023/12/26 03:47:13;173638.00;0.58;300.53;88133.00;0.29;153.08;;;;;9.90;1.00;;;;;;2268045;61;1079;-89
2023/12/26 03:49:40;238354.00;0.79;411.92;93615.00;0.31;162.55;;;;;9.90;1.00;;;;;;2267920;61;1399;-86
2023/12/26 03:52:09;430299.00;1.43;741.90;62116.00;0.21;108.13;;;;;9.90;1.00;;;;;;2268105;61;962;-88
2023/12/26 03:54:36;205088.00;0.68;354.68;86158.00;0.29;149.67;;;;;9.90;1.00;;;;;;2268041;61;1079;-86
2023/12/26 03:57:04;3067.00;0.01;5.94;0.00;0.00;0.62;;;;;10.00;1.00;;;;;;2268004;61;1042;-88
2023/12/26 03:59:31;280155.00;0.93;483.80;79666.00;0.27;138.46;;;;;10.20;1.00;;;;;;2267990;61;1757;-91
2023/12/26 04:01:58;42448.00;0.14;74.12;0.00;0.00;0.62;;;;;10.30;1.00;;;;;;2268017;61;1076;-87
2023/12/26 04:04:25;47598.00;0.16;83.03;0.00;0.00;0.62;;;;;10.10;1.00;;;;;;2268064;61;2002;-88
2023/12/26 04:06:52;240142.00;0.80;415.00;0.00;0.00;0.62;;;;;10.00;1.00;;;;;;2267979;61;1698;-88
2023/12/26 04:09:20;105276.00;0.35;182.68;0.00;0.00;0.62;;;;;10.20;1.00;;;;;;2267908;61;1281;-87
2023/12/26 04:11:47;23638.00;0.08;41.57;0.00;0.00;0.62;;;;;10.00;1.00;;;;;;2268005;61;963;-88
2023/12/26 04:14:14;145739.00;0.49;252.46;0.00;0.00;0.62;;;;;9.90;1.00;;;;;;2267769;61;959;-87
2023/12/26 04:16:41;894.00;0.00;2.17;0.00;0.00;0.62;;;;;10.20;1.00;;;;;;2267863;61;1029;-87
2023/12/26 04:19:08;29234.00;0.10;51.26;0.00;0.00;0.62;;;;;10.40;1.00;;;;;;2267938;61;1391;-87
2023/12/26 04:21:35;21999.00;0.07;38.73;0.00;0.00;0.62;;;;;10.60;1.00;;;;;;2267908;61;1059;-88
2023/12/26 04:24:01;178390.00;0.59;308.72;36169.00;0.12;63.26;;;;;10.80;1.00;;;;;;2267910;61;1915;-87
2023/12/26 04:26:30;60936.00;0.20;106.09;0.00;0.00;0.62;;;;;10.70;1.00;;;;;;2267930;61;1436;-87
2023/12/26 04:28:57;166217.00;0.55;287.75;0.00;0.00;0.62;;;;;10.50;1.00;;;;;;2267979;61;1394;-88
2023/12/26 04:31:24;73498.00;0.24;127.80;0.00;0.00;0.62;;;;;10.20;1.00;;;;;;2267693;61;1056;-88
2023/12/26 04:33:51;217777.00;0.73;376.52;0.00;0.00;0.62;;;;;10.40;1.00;;;;;;2267838;61;1071;-88
2023/12/26 04:36:18;24527.00;0.08;43.11;0.00;0.00;0.62;;;;;10.30;1.00;;;;;;2267935;61;927;-88
2023/12/26 04:38:45;30507.00;0.10;53.46;0.00;0.00;0.62;;;;;10.40;1.00;;;;;;2267747;61;1409;-87
2023/12/26 04:41:12;84070.00;0.28;146.07;0.00;0.00;0.62;;;;;10.40;1.00;;;;;;2267666;61;1081;-87
2023/12/26 04:43:40;103750.00;0.35;180.04;0.00;0.00;0.62;;;;;10.20;1.00;;;;;;2267822;61;1008;-87
2023/12/26 04:46:07;85295.00;0.28;148.18;0.00;0.00;0.62;;;;;10.00;1.00;;;;;;2267853;61;2013;-87
2023/12/26 04:48:34;50477.00;0.17;88.01;0.00;0.00;0.62;;;;;10.30;1.00;;;;;;2267819;61;1304;-87
2023/12/26 04:51:02;135562.00;0.45;234.92;0.00;0.00;0.62;;;;;10.40;1.00;;;;;;2267921;61;1002;-89
2023/12/26 04:53:29;40912.00;0.14;71.47;0.00;0.00;0.62;;;;;10.40;1.00;;;;;;2267836;61;999;-87
2023/12/26 04:55:55;79059.00;0.26;137.41;0.00;0.00;0.62;;;;;10.30;1.00;;;;;;2267811;61;2351;-89
2023/12/26 04:58:22;47453.00;0.16;82.78;0.00;0.00;0.62;;;;;10.20;1.00;;;;;;2267786;61;1375;-86
2023/12/26 05:00:51;80675.00;0.27;140.20;0.00;0.00;0.62;;;;;10.00;1.00;;;;;;2267783;61;1126;-87
2023/12/26 05:03:18;151141.00;0.50;261.77;9363.00;0.03;16.85;;;;;10.10;1.00;;;;;;2267760;61;1044;-88
2023/12/26 05:05:44;67911.00;0.23;118.15;0.00;0.00;0.62;;;;;10.20;1.00;;;;;;2267746;61;2002;-87
2023/12/26 05:08:11;12996.00;0.04;23.14;0.00;0.00;0.62;;;;;10.50;1.00;;;;;;2267756;61;1624;-87
2023/12/26 05:10:38;309953.00;1.03;535.03;25316.00;0.08;44.47;;;;;10.30;1.00;;;;;;2267849;61;1035;-86
2023/12/26 05:13:05;58596.00;0.20;102.05;0.00;0.00;0.62;;;;;10.30;1.00;;;;;;2267818;61;934;-88
2023/12/26 05:15:32;113312.00;0.38;196.54;0.00;0.00;0.62;;;;;10.30;1.00;;;;;;2267706;61;1072;-88
2023/12/26 05:18:03;3493.00;0.01;6.67;0.00;0.00;0.62;;;;;10.40;1.00;;;;;;2267855;61;1361;-86
2023/12/26 05:20:30;135772.00;0.45;235.28;31171.00;0.10;54.61;;;;;10.40;1.00;;;;;;2267731;61;1111;-87
2023/12/26 05:22:57;85795.00;0.29;149.05;0.00;0.00;0.62;;;;;10.30;1.00;;;;;;2267718;61;965;-88
2023/12/26 05:25:24;102688.00;0.34;178.21;0.00;0.00;0.62;;;;;10.40;1.00;;;;;;2268328;61;2332;-89
2023/12/26 05:27:51;61963.00;0.21;107.87;0.00;0.00;0.62;;;;;10.20;1.00;;;;;;2268459;61;1629;-88
2023/12/26 05:30:18;345000.00;1.15;595.27;27095.00;0.09;47.55;;;;;9.90;1.00;;;;;;2268355;61;1121;-87
2023/12/26 05:32:45;52971.00;0.18;92.32;0.00;0.00;0.62;;;;;10.20;1.00;;;;;;2268579;61;1098;-88
2023/12/26 05:35:14;578.00;0.00;1.62;0.00;0.00;0.62;;;;;10.30;1.00;;;;;;2268502;61;1090;-87
2023/12/26 05:37:41;11333.00;0.04;20.26;0.00;0.00;0.62;;;;;10.10;1.00;;;;;;2268479;61;955;-87
2023/12/26 05:40:09;315877.00;1.05;545.21;18874.00;0.06;33.32;;;;;10.20;1.00;;;;;;2268480;61;1189;-89
2023/12/26 05:42:36;145050.00;0.48;251.28;0.00;0.00;0.62;;;;;10.10;1.00;;;;;;2268483;61;1115;-89
2023/12/26 05:45:03;79576.00;0.27;138.30;0.00;0.00;0.62;;;;;10.10;1.00;;;;;;2268448;61;2001;-87
2023/12/26 05:47:30;320.00;0.00;1.17;0.00;0.00;0.62;;;;;10.20;1.00;;;;;;2268449;61;1561;-85
2023/12/26 05:49:58;310433.00;1.03;535.85;67110.00;0.22;116.77;;;;;10.10;1.00;;;;;;2268431;61;1369;-86
2023/12/26 05:52:27;45628.00;0.15;79.62;0.00;0.00;0.62;;;;;10.00;1.00;;;;;;2268478;61;1291;-87
2023/12/26 05:54:55;42177.00;0.14;73.65;0.00;0.00;0.62;;;;;10.10;1.00;;;;;;2268446;61;1043;-88
2023/12/26 05:57:22;60690.00;0.20;105.67;0.00;0.00;0.62;;;;;10.20;1.00;;;;;;2268415;61;1056;-87
2023/12/26 05:59:49;208019.00;0.69;359.73;0.00;0.00;0.62;;;;;10.40;1.00;;;;;;2268465;61;1415;-87
2023/12/26 06:02:16;170108.00;0.57;294.45;6215.00;0.02;11.39;;;;;10.50;1.00;;;;;;2268383;61;1007;-88
2023/12/26 06:04:43;42966.00;0.14;75.02;0.00;0.00;0.62;;;;;10.40;1.00;;;;;;2268336;61;1915;-89
2023/12/26 06:07:09;114064.00;0.38;197.84;0.00;0.00;0.62;;;;;10.50;1.00;;;;;;2268361;61;928;-88
2023/12/26 06:09:38;83354.00;0.28;144.83;0.00;0.00;0.62;;;;;10.30;1.00;;;;;;2268295;61;1281;-88
2023/12/26 06:12:05;119288.00;0.40;206.85;0.00;0.00;0.62;;;;;10.40;1.00;;;;;;2268322;61;1007;-88
2023/12/26 06:14:32;169858.00;0.57;294.02;0.00;0.00;0.62;;;;;10.40;1.00;;;;;;2268373;61;918;-88
2023/12/26 06:17:00;389417.00;1.30;671.61;23553.00;0.08;41.42;;;;;10.30;1.00;;;;;;2268434;61;1263;-86
2023/12/26 06:19:28;34285.00;0.11;60.00;0.00;0.00;0.62;;;;;10.30;1.00;;;;;;2268303;61;1501;-87
2023/12/26 06:21:55;309147.00;1.03;533.64;0.00;0.00;0.62;;;;;10.30;1.00;;;;;;2268395;61;1035;-87
2023/12/26 06:24:22;413400.00;1.38;712.84;16752.00;0.06;29.65;;;;;10.30;1.00;;;;;;2268231;61;1023;-88
2023/12/26 06:26:51;10009.00;0.03;17.96;0.00;0.00;0.62;;;;;10.30;1.00;;;;;;2268268;61;1922;-86
2023/12/26 06:29:18;153618.00;0.51;266.04;14356.00;0.05;25.50;;;;;10.20;1.00;;;;;;2268199;61;1372;-86
2023/12/26 06:31:45;81292.00;0.27;141.27;0.00;0.00;0.62;;;;;10.20;1.00;;;;;;2268275;61;1011;-88
2023/12/26 06:34:12;123665.00;0.41;214.40;0.00;0.00;0.62;;;;;10.20;1.00;;;;;;2268229;61;1095;-87
2023/12/26 06:36:38;150646.00;0.50;260.92;0.00;0.00;0.62;;;;;10.20;1.00;;;;;;2268031;61;1708;-87
2023/12/26 06:39:05;84156.00;0.28;146.22;0.00;0.00;0.62;;;;;10.30;1.00;;;;;;2268122;61;1359;-85
2023/12/26 06:41:33;78652.00;0.26;136.71;0.00;0.00;0.62;;;;;10.20;1.00;;;;;;2268307;61;2116;-86
2023/12/26 06:44:01;176621.00;0.59;305.67;23337.00;0.08;41.05;;;;;10.20;1.00;;;;;;2268195;61;2479;-86
2023/12/26 06:46:28;51625.00;0.17;90.00;0.00;0.00;0.62;;;;;10.10;1.00;;;;;;2268169;61;1962;-86
2023/12/26 06:48:55;241748.00;0.81;417.76;62981.00;0.21;109.63;;;;;10.20;1.00;;;;;;2268243;61;1319;-89
2023/12/26 06:51:22;109009.00;0.36;189.12;29142.00;0.10;51.10;;;;;10.10;1.00;;;;;;2268257;61;2298;-88
2023/12/26 06:53:49;187734.00;0.63;324.81;35586.00;0.12;62.25;;;;;10.10;1.00;;;;;;2268306;61;1083;-88
2023/12/26 06:56:16;116937552.00;389.79;64771804.00;0.00;0.00;0.62;;;;;10.10;1.00;;;;;;2268067;61;1693;-88
2023/12/26 06:58:43;54836.00;0.18;95.55;0.00;0.00;0.62;;;;;9.90;1.00;;;;;;2268147;61;1344;-88
2023/12/26 07:01:13;314747.00;1.05;543.27;53423.00;0.18;93.11;;;;;9.90;1.00;;;;;;2268252;61;1028;-86
2023/12/26 07:03:40;34601.00;0.12;60.55;0.00;0.00;0.62;;;;;9.90;1.00;;;;;;2268120;61;1793;-88
2023/12/26 07:06:07;129139.00;0.43;223.84;17436.00;0.06;30.83;;;;;9.90;1.00;;;;;;2268071;61;2021;-88
2023/12/26 07:08:34;190521.00;0.64;329.61;29900.00;0.10;52.41;;;;;9.80;1.00;;;;;;2268224;61;1362;-88
2023/12/26 07:11:00;165500.00;0.55;286.51;24796.00;0.08;43.57;;;;;9.90;1.00;;;;;;2268220;61;1181;-88
2023/12/26 07:13:27;270719.00;0.90;467.58;17100.00;0.06;30.25;;;;;10.10;1.00;;;;;;2268184;61;1039;-87
2023/12/26 07:15:54;242.00;0.00;1.04;0.00;0.00;0.62;;;;;10.30;1.00;;;;;;2268217;61;1077;-87
2023/12/26 07:18:22;103247.00;0.34;179.18;0.00;0.00;0.62;;;;;10.20;1.00;;;;;;2268117;61;1292;-88
2023/12/26 07:20:49;13718.00;0.05;24.39;0.00;0.00;0.62;;;;;10.40;1.00;;;;;;2268176;61;895;-90
2023/12/26 07:23:17;115627.00;0.39;200.54;0.00;0.00;0.62;;;;;10.30;1.00;;;;;;2268049;61;1102;-88
2023/12/26 07:25:43;12012.00;0.04;21.43;0.00;0.00;0.62;;;;;10.10;1.00;;;;;;2268035;61;1924;-88
2023/12/26 07:28:14;83237.00;0.28;144.63;0.00;0.00;0.62;;;;;10.20;1.00;;;;;;2268031;61;1268;-89
2023/12/26 07:30:41;24153.00;0.08;42.46;0.00;0.00;0.62;;;;;10.20;1.00;;;;;;2268093;61;997;-87
2023/12/26 07:33:08;97501.00;0.33;169.26;4809.00;0.02;8.95;;;;;10.10;1.00;;;;;;2268037;61;1728;-87
2023/12/26 07:35:38;37573.00;0.13;65.69;0.00;0.00;0.62;;;;;10.00;1.00;;;;;;2268027;61;1406;-88
2023/12/26 07:38:06;69948.00;0.23;121.67;0.00;0.00;0.62;;;;;9.90;1.00;;;;;;2268140;61;1467;-87
2023/12/26 07:40:33;55999.00;0.19;97.56;0.00;0.00;0.62;;;;;10.10;1.00;;;;;;2267996;61;1513;-87
2023/12/26 07:43:00;205824.00;0.69;355.95;64813.00;0.22;112.80;;;;;10.00;1.00;;;;;;2267989;61;1095;-89
2023/12/26 07:45:27;177303.00;0.59;306.84;0.00;0.00;0.62;;;;;9.90;1.00;;;;;;2268065;61;2013;-88
2023/12/26 07:47:53;112328.00;0.37;194.85;30160.00;0.10;52.86;;;;;10.00;1.00;;;;;;2268000;61;1257;-89
2023/12/26 07:50:22;90972.00;0.30;157.99;0.00;0.00;0.62;;;;;9.70;1.00;;;;;;2268066;61;1066;-88
2023/12/26 07:52:50;28035.00;0.09;49.18;0.00;0.00;0.62;;;;;9.70;1.00;;;;;;2267992;61;1095;-89
2023/12/26 07:55:17;98056.00;0.33;170.22;0.00;0.00;0.62;;;;;9.80;1.00;;;;;;2267981;61;1149;-87
2023/12/26 07:57:44;193987.00;0.65;335.57;20431.00;0.07;36.02;;;;;10.00;1.00;;;;;;2267996;61;1227;-88
2023/12/26 08:00:13;198125.00;0.66;342.70;1480.00;0.00;3.19;;;;;9.80;1.00;;;;;;2267977;61;1326;-87
2023/12/26 08:02:40;19193.00;0.06;33.87;0.00;0.00;0.62;;;;;9.80;1.00;;;;;;2268001;61;911;-89
2023/12/26 08:05:07;162675.00;0.54;281.65;0.00;0.00;0.62;;;;;9.70;1.00;;;;;;2267896;61;1993;-88
2023/12/26 08:07:34;279392.00;0.93;482.49;0.00;0.00;0.62;;;;;9.60;1.00;;;;;;2268006;61;915;-87
2023/12/26 08:10:02;162394.00;0.54;281.16;0.00;0.00;0.62;;;;;9.70;1.00;;;;;;2267839;61;1385;-88
2023/12/26 08:12:29;45540.00;0.15;79.47;0.00;0.00;0.62;;;;;9.60;1.00;;;;;;2267876;61;1582;-88
2023/12/26 08:14:56;238.00;0.00;1.03;0.00;0.00;0.62;;;;;9.70;1.00;;;;;;2267963;61;1106;-88
2023/12/26 08:17:23;97922.00;0.33;169.98;0.00;0.00;0.62;;;;;9.90;1.00;;;;;;2267890;61;1058;-87
2023/12/26 08:19:50;104374.00;0.35;181.12;0.00;0.00;0.62;;;;;9.80;1.00;;;;;;2267841;61;1286;-89
2023/12/26 08:22:17;118322.00;0.39;205.19;0.00;0.00;0.62;;;;;9.70;1.00;;;;;;2267821;61;1118;-89
2023/12/26 08:24:44;162247.00;0.54;280.91;19026.00;0.06;33.58;;;;;9.70;1.00;;;;;;2267968;61;1459;-87
2023/12/26 08:27:12;9112.00;0.03;16.41;0.00;0.00;0.62;;;;;9.70;1.00;;;;;;2267712;61;2009;-89
2023/12/26 08:29:39;192559.00;0.64;333.11;0.00;0.00;0.62;;;;;9.60;1.00;;;;;;2267776;61;1997;-89
2023/12/26 08:32:06;8002.00;0.03;14.49;0.00;0.00;0.62;;;;;9.80;1.00;;;;;;2267873;61;1048;-88
2023/12/26 08:34:33;290352.00;0.97;501.33;52263.00;0.17;91.10;;;;;10.00;1.00;;;;;;2279940;40;3667;-87
2023/12/26 08:37:00;162325.00;0.54;281.05;0.00;0.00;0.62;;;;;10.20;1.00;;;;;;2267866;61;1090;-87
2023/12/26 08:39:27;0.00;0.00;0.62;0.00;0.00;0.62;;;;;10.30;1.00;;;;;;2267826;61;1274;-88
2023/12/26 08:41:54;126532.00;0.42;219.35;0.00;0.00;0.62;;;;;10.40;1.00;;;;;;2267839;61;1087;-89
2023/12/26 08:44:23;286832.00;0.96;495.28;61436.00;0.20;106.96;;;;;10.70;1.00;;;;;;2267764;61;1174;-89
2023/12/26 08:46:51;340293.00;1.13;587.18;24575.00;0.08;43.19;;;;;11.10;1.00;;;;;;2267824;61;1920;-86
2023/12/26 08:49:18;19080.00;0.06;33.68;0.00;0.00;0.62;;;;;11.20;1.00;;;;;;2267712;61;1427;-88
2023/12/26 08:51:45;12842.00;0.04;22.87;0.00;0.00;0.62;;;;;11.40;1.00;;;;;;2267785;61;1104;-89
2023/12/26 08:54:13;16391.00;0.05;29.02;0.00;0.00;0.62;;;;;11.30;1.00;;;;;;2267818;61;1055;-88
2023/12/26 08:56:40;96160.00;0.32;166.94;0.00;0.00;0.62;;;;;11.50;1.00;;;;;;2267790;61;1043;-88
2023/12/26 08:59:07;57910.00;0.19;100.86;0.00;0.00;0.62;;;;;11.60;1.00;;;;;;2267966;61;1273;-88
2023/12/26 09:01:36;191410.00;0.64;331.14;9987.00;0.03;17.93;;;;;11.10;1.00;;;;;;2268498;61;924;-87
2023/12/26 09:04:03;20829.00;0.07;36.71;0.00;0.00;0.62;;;;;11.20;1.00;;;;;;2268407;61;1437;-86
2023/12/26 09:06:30;258359.00;0.86;446.33;22786.00;0.08;40.09;;;;;11.40;1.00;;;;;;2268475;61;1994;-89
2023/12/26 09:08:57;760362.00;2.53;1312.08;60796.00;0.20;105.85;;;;;11.40;1.00;;;;;;2268470;61;1723;-86
2023/12/26 09:11:25;549924.00;1.83;947.83;29195.00;0.10;51.19;;;;;11.20;1.00;;;;;;2268444;61;1040;-87
2023/12/26 09:13:51;969391.00;3.23;1678.33;82861.00;0.28;143.98;;;;;11.00;1.00;;;;;;2268532;61;1099;-87
2023/12/26 09:16:18;1214153.00;4.05;2115.83;111702.00;0.37;193.77;;;;;11.10;1.00;;;;;;2268462;61;1083;-89
2023/12/26 09:21:14;789265.00;2.63;1362.41;85112.00;0.28;147.87;;;;;11.20;1.00;;;;;;2270110;61;1396;-88
2023/12/26 09:23:41;1375977.00;4.59;2411.84;27911.00;0.09;48.97;;;;;11.20;1.00;;;;;;2268416;61;1690;-87
2023/12/26 09:26:08;1015926.00;3.39;1760.70;34070.00;0.11;59.63;;;;;11.20;1.00;;;;;;2268180;61;1921;-88
2023/12/26 09:28:35;1322881.00;4.41;2314.04;129472.00;0.43;224.42;;;;;11.20;1.00;;;;;;2267077;61;1270;-88
2023/12/26 09:31:02;1320770.00;4.40;2310.17;149243.00;0.50;258.50;;;;;11.40;1.00;;;;;;2264360;61;1143;-88
2023/12/26 09:33:29;962484.00;3.21;1666.14;109851.00;0.37;190.57;;;;;11.30;1.00;;;;;;2264498;61;1744;-86
2023/12/26 09:35:56;1100062.00;3.67;1910.53;110752.00;0.37;192.13;;;;;11.60;1.00;;;;;;2264455;61;941;-87
2023/12/26 09:38:25;1033281.00;3.44;1791.51;48818.00;0.16;85.14;;;;;11.50;1.00;;;;;;2264283;61;1558;-88
2023/12/26 09:40:52;1573539.00;5.25;2782.28;132713.00;0.44;230.01;;;;;11.50;1.00;;;;;;2264517;61;1044;-87
2023/12/26 09:43:19;981197.00;3.27;1699.20;79133.00;0.26;137.54;;;;;11.40;1.00;;;;;;2264289;61;1002;-87
2023/12/26 09:45:46;1125996.00;3.75;1956.98;96695.00;0.32;167.87;;;;;11.20;1.00;;;;;;2264415;61;1916;-88
2023/12/26 09:48:14;1051850.00;3.51;1824.52;73193.00;0.24;127.28;;;;;11.10;1.00;;;;;;2264374;61;2315;-89
2023/12/26 09:50:40;1424227.00;4.75;2501.33;89506.00;0.30;155.45;;;;;11.00;1.00;;;;;;2264447;61;1324;-88
2023/12/26 09:53:09;1631564.00;5.44;2893.21;151864.00;0.51;263.02;;;;;11.30;1.00;;;;;;2264399;61;944;-86
2023/12/26 09:55:38;1399684.00;4.67;2455.74;222003.00;0.74;383.79;;;;;11.40;1.00;;;;;;2264404;61;919;-88
2023/12/26 09:58:06;1970320.00;6.57;3563.56;217657.00;0.73;376.31;;;;;11.80;1.00;;;;;;2264390;61;1305;-88